Terminal Aerodrome Forecast
Issued by NWS Sterling, VA

Current Version | Previous Version | Text Only | Print | Product List | Glossary Off
Versions: 1 2 3 4 5 6 7 8 9 10 11 12 13 14 15 16 17 18 19 20 21 22 23

000
FTUS41 KLWX 220500
TAFDCA
TAF
KDCA 220538Z 2206/2306 33007KT P6SM VCSH OVC060
     FM220800 33009KT 6SM -RA OVC025
     FM221000 34013KT 6SM -RA SCT008 OVC015
     FM221700 35016G26KT P6SM OVC025
     FM230100 33018KT P6SM BKN040=

USA.gov is the U.S. government's official web portal to all federal, state and local government web resources and services.